sensor_id;sensor_type;location;lat;lon;timestamp;pressure;altitude;pressure_sealevel;temperature;humidity
72116;BME280;59991;52.140;5.428;2022-07-06T00:00:46;102610.44;;;13.16;71.08
72116;BME280;59991;52.140;5.428;2022-07-06T00:02:47;102609.16;;;13.13;71.45
72116;BME280;59991;52.140;5.428;2022-07-06T00:04:49;102613.41;;;13.10;71.64
72116;BME280;59991;52.140;5.428;2022-07-06T00:06:50;102613.75;;;13.09;71.11
72116;BME280;59991;52.140;5.428;2022-07-06T00:08:52;102606.31;;;13.09;71.53
72116;BME280;59991;52.140;5.428;2022-07-06T00:10:53;102611.38;;;13.07;71.33
72116;BME280;59991;52.140;5.428;2022-07-06T00:12:55;102619.16;;;13.05;71.68
72116;BME280;59991;52.140;5.428;2022-07-06T00:14:56;102613.22;;;13.03;71.60
72116;BME280;59991;52.140;5.428;2022-07-06T00:16:57;102615.16;;;13.03;71.42
72116;BME280;59991;52.140;5.428;2022-07-06T00:18:59;102615.88;;;13.00;71.05
72116;BME280;59991;52.140;5.428;2022-07-06T00:21:01;102615.41;;;12.98;71.23
72116;BME280;59991;52.140;5.428;2022-07-06T00:23:03;102611.88;;;12.97;71.75
72116;BME280;59991;52.140;5.428;2022-07-06T00:25:04;102609.50;;;12.96;71.82
72116;BME280;59991;52.140;5.428;2022-07-06T00:27:06;102616.44;;;12.93;72.08
72116;BME280;59991;52.140;5.428;2022-07-06T00:29:08;102606.56;;;12.89;71.98
72116;BME280;59991;52.140;5.428;2022-07-06T00:31:09;102603.28;;;12.83;71.91
72116;BME280;59991;52.140;5.428;2022-07-06T00:33:11;102599.66;;;12.79;71.65
72116;BME280;59991;52.140;5.428;2022-07-06T00:35:12;102607.41;;;12.77;72.07
72116;BME280;59991;52.140;5.428;2022-07-06T00:37:14;102600.59;;;12.71;72.32
72116;BME280;59991;52.140;5.428;2022-07-06T00:39:16;102599.72;;;12.67;72.60
72116;BME280;59991;52.140;5.428;2022-07-06T00:41:20;102602.34;;;12.63;72.36
72116;BME280;59991;52.140;5.428;2022-07-06T00:43:22;102601.53;;;12.63;73.10
72116;BME280;59991;52.140;5.428;2022-07-06T00:45:23;102603.03;;;12.60;72.88
72116;BME280;59991;52.140;5.428;2022-07-06T00:47:25;102595.16;;;12.59;73.10
72116;BME280;59991;52.140;5.428;2022-07-06T00:49:26;102608.50;;;12.60;72.98
72116;BME280;59991;52.140;5.428;2022-07-06T00:51:46;102600.66;;;12.59;73.02
72116;BME280;59991;52.140;5.428;2022-07-06T00:53:48;102595.16;;;12.59;73.28
72116;BME280;59991;52.140;5.428;2022-07-06T00:56:08;102596.75;;;12.60;73.51
72116;BME280;59991;52.140;5.428;2022-07-06T00:58:10;102603.38;;;12.59;73.23
72116;BME280;59991;52.140;5.428;2022-07-06T01:00:14;102601.44;;;12.59;73.50
72116;BME280;59991;52.140;5.428;2022-07-06T01:02:17;102610.34;;;12.56;73.17
72116;BME280;59991;52.140;5.428;2022-07-06T01:04:19;102607.16;;;12.54;73.36
72116;BME280;59991;52.140;5.428;2022-07-06T01:06:21;102607.50;;;12.53;73.29
72116;BME280;59991;52.140;5.428;2022-07-06T01:08:22;102607.06;;;12.51;73.41
72116;BME280;59991;52.140;5.428;2022-07-06T01:10:25;102611.28;;;12.48;73.01
72116;BME280;59991;52.140;5.428;2022-07-06T01:12:26;102618.25;;;12.45;73.70
72116;BME280;59991;52.140;5.428;2022-07-06T01:14:28;102616.22;;;12.42;73.77
72116;BME280;59991;52.140;5.428;2022-07-06T01:16:30;102618.94;;;12.42;73.74
72116;BME280;59991;52.140;5.428;2022-07-06T01:18:32;102615.75;;;12.40;73.27
72116;BME280;59991;52.140;5.428;2022-07-06T01:20:33;102610.97;;;12.37;74.45
72116;BME280;59991;52.140;5.428;2022-07-06T01:22:35;102614.72;;;12.33;73.85
72116;BME280;59991;52.140;5.428;2022-07-06T01:24:37;102608.84;;;12.31;73.99
72116;BME280;59991;52.140;5.428;2022-07-06T01:26:38;102617.84;;;12.31;74.33
72116;BME280;59991;52.140;5.428;2022-07-06T01:28:40;102616.25;;;12.30;74.22
72116;BME280;59991;52.140;5.428;2022-07-06T01:30:42;102618.19;;;12.30;74.09
72116;BME280;59991;52.140;5.428;2022-07-06T01:32:43;102613.06;;;12.28;74.21
72116;BME280;59991;52.140;5.428;2022-07-06T01:35:05;102611.00;;;12.25;74.33
72116;BME280;59991;52.140;5.428;2022-07-06T01:37:07;102604.28;;;12.23;74.58
72116;BME280;59991;52.140;5.428;2022-07-06T01:39:09;102604.19;;;12.19;74.81
72116;BME280;59991;52.140;5.428;2022-07-06T01:41:12;102597.13;;;12.18;74.90
72116;BME280;59991;52.140;5.428;2022-07-06T01:43:14;102590.38;;;12.16;74.72
72116;BME280;59991;52.140;5.428;2022-07-06T01:45:15;102594.25;;;12.15;74.73
72116;BME280;59991;52.140;5.428;2022-07-06T01:47:16;102586.16;;;12.18;74.85
72116;BME280;59991;52.140;5.428;2022-07-06T01:49:18;102597.13;;;12.18;74.75
72116;BME280;59991;52.140;5.428;2022-07-06T01:51:19;102603.59;;;12.14;75.08
72116;BME280;59991;52.140;5.428;2022-07-06T01:53:21;102592.94;;;12.08;74.98
72116;BME280;59991;52.140;5.428;2022-07-06T01:55:22;102598.75;;;12.07;75.31
72116;BME280;59991;52.140;5.428;2022-07-06T01:57:24;102599.88;;;12.06;75.31
72116;BME280;59991;52.140;5.428;2022-07-06T01:59:25;102596.69;;;12.04;75.50
72116;BME280;59991;52.140;5.428;2022-07-06T02:01:27;102595.78;;;12.00;75.69
72116;BME280;59991;52.140;5.428;2022-07-06T02:03:28;102593.72;;;11.97;75.46
72116;BME280;59991;52.140;5.428;2022-07-06T02:05:30;102599.19;;;11.97;75.57
72116;BME280;59991;52.140;5.428;2022-07-06T02:07:31;102595.66;;;11.96;75.63
72116;BME280;59991;52.140;5.428;2022-07-06T02:09:32;102601.94;;;11.97;75.77
72116;BME280;59991;52.140;5.428;2022-07-06T02:11:34;102598.06;;;11.98;75.31
72116;BME280;59991;52.140;5.428;2022-07-06T02:13:35;102595.78;;;12.00;75.75
72116;BME280;59991;52.140;5.428;2022-07-06T02:15:37;102598.06;;;11.98;75.40
72116;BME280;59991;52.140;5.428;2022-07-06T02:17:38;102594.53;;;11.97;75.18
72116;BME280;59991;52.140;5.428;2022-07-06T02:19:40;102593.28;;;11.95;75.56
72116;BME280;59991;52.140;5.428;2022-07-06T02:21:41;102584.63;;;11.93;75.70
72116;BME280;59991;52.140;5.428;2022-07-06T02:23:42;102592.13;;;11.96;75.31
72116;BME280;59991;52.140;5.428;2022-07-06T02:25:44;102593.28;;;11.95;75.74
72116;BME280;59991;52.140;5.428;2022-07-06T02:27:46;102586.22;;;11.94;75.66
72116;BME280;59991;52.140;5.428;2022-07-06T02:29:47;102592.59;;;11.98;75.80
72116;BME280;59991;52.140;5.428;2022-07-06T02:31:48;102597.72;;;11.99;75.56
72116;BME280;59991;52.140;5.428;2022-07-06T02:33:50;102587.91;;;11.98;75.69
72116;BME280;59991;52.140;5.428;2022-07-06T02:35:51;102591.44;;;11.99;76.04
72116;BME280;59991;52.140;5.428;2022-07-06T02:37:53;102589.16;;;12.01;76.12
72116;BME280;59991;52.140;5.428;2022-07-06T02:39:54;102600.56;;;12.03;75.89
72116;BME280;59991;52.140;5.428;2022-07-06T02:41:56;102591.91;;;12.01;76.19
72116;BME280;59991;52.140;5.428;2022-07-06T02:43:57;102599.44;;;12.04;75.96
72116;BME280;59991;52.140;5.428;2022-07-06T02:46:17;102605.69;;;12.04;75.92
72116;BME280;59991;52.140;5.428;2022-07-06T02:48:19;102608.41;;;12.04;76.02
72116;BME280;59991;52.140;5.428;2022-07-06T02:50:23;102609.22;;;12.05;76.20
72116;BME280;59991;52.140;5.428;2022-07-06T02:52:25;102611.97;;;12.05;76.10
72116;BME280;59991;52.140;5.428;2022-07-06T02:54:26;102610.03;;;12.05;75.90
72116;BME280;59991;52.140;5.428;2022-07-06T02:56:27;102614.00;;;12.08;76.40
72116;BME280;59991;52.140;5.428;2022-07-06T02:58:29;102602.63;;;12.06;76.28
72116;BME280;59991;52.140;5.428;2022-07-06T03:00:31;102609.69;;;12.07;75.67
72116;BME280;59991;52.140;5.428;2022-07-06T03:02:32;102597.94;;;12.06;76.71
72116;BME280;59991;52.140;5.428;2022-07-06T03:04:51;102605.00;;;12.07;76.63
72116;BME280;59991;52.140;5.428;2022-07-06T03:06:53;102606.94;;;12.07;76.59
72116;BME280;59991;52.140;5.428;2022-07-06T03:08:54;102606.16;;;12.06;76.66
72116;BME280;59991;52.140;5.428;2022-07-06T03:10:55;102610.13;;;12.09;76.71
72116;BME280;59991;52.140;5.428;2022-07-06T03:12:56;102602.28;;;12.07;76.54
72116;BME280;59991;52.140;5.428;2022-07-06T03:14:58;102611.28;;;12.08;77.01
72116;BME280;59991;52.140;5.428;2022-07-06T03:16:59;102603.06;;;12.08;76.61
72116;BME280;59991;52.140;5.428;2022-07-06T03:19:01;102615.16;;;12.07;76.92
72116;BME280;59991;52.140;5.428;2022-07-06T03:21:02;102619.47;;;12.08;76.66
72116;BME280;59991;52.140;5.428;2022-07-06T03:23:04;102612.06;;;12.08;77.09
72116;BME280;59991;52.140;5.428;2022-07-06T03:25:06;102614.13;;;12.12;77.30
72116;BME280;59991;52.140;5.428;2022-07-06T03:27:07;102612.19;;;12.12;77.04
72116;BME280;59991;52.140;5.428;2022-07-06T03:29:09;102619.22;;;12.13;76.88
72116;BME280;59991;52.140;5.428;2022-07-06T03:31:10;102619.22;;;12.13;77.51
72116;BME280;59991;52.140;5.428;2022-07-06T03:33:12;102621.28;;;12.16;77.42
72116;BME280;59991;52.140;5.428;2022-07-06T03:35:13;102621.38;;;12.20;77.29
72116;BME280;59991;52.140;5.428;2022-07-06T03:37:14;102612.03;;;12.21;77.17
72116;BME280;59991;52.140;5.428;2022-07-06T03:39:16;102616.38;;;12.22;76.92
72116;BME280;59991;52.140;5.428;2022-07-06T03:41:17;102614.09;;;12.24;77.13
72116;BME280;59991;52.140;5.428;2022-07-06T03:43:20;102612.16;;;12.24;77.11
72116;BME280;59991;52.140;5.428;2022-07-06T03:45:21;102609.88;;;12.26;76.89
72116;BME280;59991;52.140;5.428;2022-07-06T03:47:40;102610.66;;;12.27;76.88
72116;BME280;59991;52.140;5.428;2022-07-06T03:49:42;102604.84;;;12.28;77.40
72116;BME280;59991;52.140;5.428;2022-07-06T03:51:43;102606.78;;;12.28;77.32
72116;BME280;59991;52.140;5.428;2022-07-06T03:53:44;102617.38;;;12.29;77.40
72116;BME280;59991;52.140;5.428;2022-07-06T03:55:46;102620.91;;;12.30;77.48
72116;BME280;59991;52.140;5.428;2022-07-06T03:58:07;102616.59;;;12.29;77.61
72116;BME280;59991;52.140;5.428;2022-07-06T04:00:09;102609.25;;;12.33;77.97
72116;BME280;59991;52.140;5.428;2022-07-06T04:02:11;102606.97;;;12.35;77.47
72116;BME280;59991;52.140;5.428;2022-07-06T04:04:12;102608.56;;;12.36;77.29
72116;BME280;59991;52.140;5.428;2022-07-06T04:06:14;102609.81;;;12.38;77.15
72116;BME280;59991;52.140;5.428;2022-07-06T04:08:15;102605.94;;;12.39;77.33
72116;BME280;59991;52.140;5.428;2022-07-06T04:10:17;102599.78;;;12.42;77.59
72116;BME280;59991;52.140;5.428;2022-07-06T04:12:18;102602.53;;;12.42;77.38
72116;BME280;59991;52.140;5.428;2022-07-06T04:14:20;102596.72;;;12.44;77.86
72116;BME280;59991;52.140;5.428;2022-07-06T04:16:21;102602.28;;;12.48;77.71
72116;BME280;59991;52.140;5.428;2022-07-06T04:18:24;102595.22;;;12.47;77.48
72116;BME280;59991;52.140;5.428;2022-07-06T04:20:26;102601.16;;;12.49;77.58
72116;BME280;59991;52.140;5.428;2022-07-06T04:22:28;102607.75;;;12.48;77.77
72116;BME280;59991;52.140;5.428;2022-07-06T04:24:29;102609.81;;;12.51;77.88
72116;BME280;59991;52.140;5.428;2022-07-06T04:26:30;102603.44;;;12.47;77.41
72116;BME280;59991;52.140;5.428;2022-07-06T04:28:32;102611.75;;;12.50;77.54
72116;BME280;59991;52.140;5.428;2022-07-06T04:30:52;102610.69;;;12.55;77.41
72116;BME280;59991;52.140;5.428;2022-07-06T04:32:53;102604.88;;;12.56;77.40
72116;BME280;59991;52.140;5.428;2022-07-06T04:34:56;102606.91;;;12.59;77.60
72116;BME280;59991;52.140;5.428;2022-07-06T04:36:58;102612.50;;;12.63;77.30
72116;BME280;59991;52.140;5.428;2022-07-06T04:39:18;102613.41;;;12.67;77.04
72116;BME280;59991;52.140;5.428;2022-07-06T04:43:39;102615.16;;;12.75;76.99
72116;BME280;59991;52.140;5.428;2022-07-06T04:45:42;102613.69;;;12.77;77.57
72116;BME280;59991;52.140;5.428;2022-07-06T04:48:01;102614.69;;;12.85;76.98
72116;BME280;59991;52.140;5.428;2022-07-06T04:50:04;102610.47;;;12.88;77.36
72116;BME280;59991;52.140;5.428;2022-07-06T04:52:06;102613.25;;;12.91;77.19
72116;BME280;59991;52.140;5.428;2022-07-06T04:54:07;102605.50;;;12.93;77.46
72116;BME280;59991;52.140;5.428;2022-07-06T04:56:09;102603.66;;;12.97;77.29
72116;BME280;59991;52.140;5.428;2022-07-06T04:58:10;102607.66;;;13.00;77.41
72116;BME280;59991;52.140;5.428;2022-07-06T05:00:12;102610.13;;;13.05;77.12
72116;BME280;59991;52.140;5.428;2022-07-06T05:02:13;102612.53;;;13.06;76.72
72116;BME280;59991;52.140;5.428;2022-07-06T05:04:15;102613.41;;;13.10;76.53
72116;BME280;59991;52.140;5.428;2022-07-06T05:06:19;102608.50;;;13.16;76.47
72116;BME280;59991;52.140;5.428;2022-07-06T05:08:21;102612.91;;;13.21;76.39
72116;BME280;59991;52.140;5.428;2022-07-06T05:10:23;102614.97;;;13.24;76.52
72116;BME280;59991;52.140;5.428;2022-07-06T05:14:45;102620.69;;;13.34;76.03
72116;BME280;59991;52.140;5.428;2022-07-06T05:17:05;102618.50;;;13.40;75.71
72116;BME280;59991;52.140;5.428;2022-07-06T05:19:06;102617.44;;;13.44;75.41
72116;BME280;59991;52.140;5.428;2022-07-06T05:21:08;102617.91;;;13.46;76.23
72116;BME280;59991;52.140;5.428;2022-07-06T05:23:09;102621.50;;;13.51;75.68
72116;BME280;59991;52.140;5.428;2022-07-06T05:25:11;102620.69;;;13.50;75.70
72116;BME280;59991;52.140;5.428;2022-07-06T05:27:12;102623.53;;;13.54;74.96
72116;BME280;59991;52.140;5.428;2022-07-06T05:29:14;102628.06;;;13.62;75.79
72116;BME280;59991;52.140;5.428;2022-07-06T05:31:15;102623.47;;;13.66;75.23
72116;BME280;59991;52.140;5.428;2022-07-06T05:33:16;102621.94;;;13.68;75.55
72116;BME280;59991;52.140;5.428;2022-07-06T05:35:35;102630.00;;;13.77;74.61
72116;BME280;59991;52.140;5.428;2022-07-06T05:37:52;102615.22;;;13.81;74.90
72116;BME280;59991;52.140;5.428;2022-07-06T05:39:54;102623.16;;;13.87;75.26
72116;BME280;59991;52.140;5.428;2022-07-06T05:41:55;102620.06;;;13.88;74.64
72116;BME280;59991;52.140;5.428;2022-07-06T05:43:57;102621.81;;;13.96;74.42
72116;BME280;59991;52.140;5.428;2022-07-06T05:45:58;102625.88;;;14.02;74.01
72116;BME280;59991;52.140;5.428;2022-07-06T05:48:18;102626.75;;;14.06;74.05
72116;BME280;59991;52.140;5.428;2022-07-06T05:50:39;102624.53;;;14.12;74.36
72116;BME280;59991;52.140;5.428;2022-07-06T05:52:42;102621.06;;;14.15;74.56
72116;BME280;59991;52.140;5.428;2022-07-06T05:54:44;102629.03;;;14.20;74.53
72116;BME280;59991;52.140;5.428;2022-07-06T05:56:45;102627.31;;;14.31;74.48
72116;BME280;59991;52.140;5.428;2022-07-06T05:58:46;102622.34;;;14.37;74.42
72116;BME280;59991;52.140;5.428;2022-07-06T06:00:48;102628.06;;;14.47;74.81
72116;BME280;59991;52.140;5.428;2022-07-06T06:02:50;102623.44;;;14.51;73.73
72116;BME280;59991;52.140;5.428;2022-07-06T06:04:53;102627.94;;;14.60;73.58
72116;BME280;59991;52.140;5.428;2022-07-06T06:07:13;102633.13;;;14.65;73.58
72116;BME280;59991;52.140;5.428;2022-07-06T06:09:14;102632.47;;;14.71;73.55
72116;BME280;59991;52.140;5.428;2022-07-06T06:11:16;102623.59;;;14.78;73.54
72116;BME280;59991;52.140;5.428;2022-07-06T06:13:17;102628.78;;;14.83;72.92
72116;BME280;59991;52.140;5.428;2022-07-06T06:15:19;102626.19;;;14.90;72.65
72116;BME280;59991;52.140;5.428;2022-07-06T06:17:20;102625.91;;;14.95;71.63
72116;BME280;59991;52.140;5.428;2022-07-06T06:21:42;102633.59;;;15.09;72.32
72116;BME280;59991;52.140;5.428;2022-07-06T06:23:43;102636.41;;;15.12;71.98
72116;BME280;59991;52.140;5.428;2022-07-06T06:25:45;102638.81;;;15.14;71.46
72116;BME280;59991;52.140;5.428;2022-07-06T06:27:47;102641.91;;;15.12;71.58
72116;BME280;59991;52.140;5.428;2022-07-06T06:29:48;102642.19;;;15.07;70.81
72116;BME280;59991;52.140;5.428;2022-07-06T06:31:50;102640.25;;;15.08;71.32
72116;BME280;59991;52.140;5.428;2022-07-06T06:33:51;102644.94;;;15.07;70.73
72116;BME280;59991;52.140;5.428;2022-07-06T06:35:54;102650.59;;;15.14;70.98
72116;BME280;59991;52.140;5.428;2022-07-06T06:37:55;102654.59;;;15.20;70.40
72116;BME280;59991;52.140;5.428;2022-07-06T06:39:57;102646.50;;;15.28;69.77
72116;BME280;59991;52.140;5.428;2022-07-06T06:41:58;102646.28;;;15.36;69.87
72116;BME280;59991;52.140;5.428;2022-07-06T06:44:00;102651.50;;;15.45;69.51
72116;BME280;59991;52.140;5.428;2022-07-06T06:46:20;102650.84;;;15.51;69.21
72116;BME280;59991;52.140;5.428;2022-07-06T06:48:22;102649.03;;;15.59;69.65
72116;BME280;59991;52.140;5.428;2022-07-06T06:50:24;102649.09;;;15.63;69.30
72116;BME280;59991;52.140;5.428;2022-07-06T06:52:26;102646.47;;;15.70;69.38
72116;BME280;59991;52.140;5.428;2022-07-06T06:54:42;102653.19;;;15.72;68.59
72116;BME280;59991;52.140;5.428;2022-07-06T06:56:44;102652.72;;;15.67;69.25
72116;BME280;59991;52.140;5.428;2022-07-06T06:58:45;102649.97;;;15.67;68.60
72116;BME280;59991;52.140;5.428;2022-07-06T07:01:07;102653.28;;;15.79;67.48
72116;BME280;59991;52.140;5.428;2022-07-06T07:03:08;102650.28;;;15.88;67.33
72116;BME280;59991;52.140;5.428;2022-07-06T07:05:11;102657.91;;;15.98;66.31
72116;BME280;59991;52.140;5.428;2022-07-06T07:07:12;102654.97;;;16.10;67.17
72116;BME280;59991;52.140;5.428;2022-07-06T07:09:14;102655.09;;;16.21;66.86
72116;BME280;59991;52.140;5.428;2022-07-06T07:11:15;102646.09;;;16.24;65.99
72116;BME280;59991;52.140;5.428;2022-07-06T07:13:17;102646.78;;;16.17;64.88
72116;BME280;59991;52.140;5.428;2022-07-06T07:15:19;102642.56;;;16.23;64.47
72116;BME280;59991;52.140;5.428;2022-07-06T07:17:20;102654.53;;;16.35;64.47
72116;BME280;59991;52.140;5.428;2022-07-06T07:19:22;102655.13;;;16.51;64.70
72116;BME280;59991;52.140;5.428;2022-07-06T07:21:23;102653.59;;;16.53;64.69
72116;BME280;59991;52.140;5.428;2022-07-06T07:23:25;102648.34;;;16.45;63.95
72116;BME280;59991;52.140;5.428;2022-07-06T07:25:27;102647.13;;;16.42;64.53
72116;BME280;59991;52.140;5.428;2022-07-06T07:27:28;102660.53;;;16.44;63.95
72116;BME280;59991;52.140;5.428;2022-07-06T07:29:30;102656.13;;;16.39;64.11
72116;BME280;59991;52.140;5.428;2022-07-06T07:31:31;102655.88;;;16.48;63.07
72116;BME280;59991;52.140;5.428;2022-07-06T07:33:33;102664.81;;;16.41;62.85
72116;BME280;59991;52.140;5.428;2022-07-06T07:35:35;102648.31;;;16.41;62.76
72116;BME280;59991;52.140;5.428;2022-07-06T07:37:36;102649.56;;;16.47;62.46
72116;BME280;59991;52.140;5.428;2022-07-06T07:41:59;102652.56;;;16.35;60.92
72116;BME280;59991;52.140;5.428;2022-07-06T07:44:00;102655.78;;;16.41;60.01
72116;BME280;59991;52.140;5.428;2022-07-06T07:46:02;102659.91;;;16.57;60.27
72116;BME280;59991;52.140;5.428;2022-07-06T07:48:04;102651.47;;;16.70;59.89
72116;BME280;59991;52.140;5.428;2022-07-06T07:50:06;102653.00;;;16.67;60.30
72116;BME280;59991;52.140;5.428;2022-07-06T07:52:09;102660.75;;;16.62;60.22
72116;BME280;59991;52.140;5.428;2022-07-06T07:54:10;102659.31;;;16.68;59.50
72116;BME280;59991;52.140;5.428;2022-07-06T07:56:12;102655.44;;;16.76;59.10
72116;BME280;59991;52.140;5.428;2022-07-06T07:58:13;102653.22;;;16.85;58.05
72116;BME280;59991;52.140;5.428;2022-07-06T08:00:15;102644.63;;;16.93;57.40
72116;BME280;59991;52.140;5.428;2022-07-06T08:02:17;102638.50;;;17.07;58.61
72116;BME280;59991;52.140;5.428;2022-07-06T08:04:18;102657.97;;;17.25;58.19
72116;BME280;59991;52.140;5.428;2022-07-06T08:06:20;102649.84;;;17.39;58.00
72116;BME280;59991;52.140;5.428;2022-07-06T08:08:30;102647.63;;;17.59;56.66
72116;BME280;59991;52.140;5.428;2022-07-06T08:10:31;102644.66;;;17.78;56.51
72116;BME280;59991;52.140;5.428;2022-07-06T08:12:46;102635.72;;;17.95;56.91
72116;BME280;59991;52.140;5.428;2022-07-06T08:15:06;102638.50;;;17.99;57.06
72116;BME280;59991;52.140;5.428;2022-07-06T08:17:07;102636.91;;;17.98;56.79
72116;BME280;59991;52.140;5.428;2022-07-06T08:19:09;102639.34;;;18.07;56.77
72116;BME280;59991;52.140;5.428;2022-07-06T08:21:11;102646.44;;;18.04;54.17
72116;BME280;59991;52.140;5.428;2022-07-06T08:23:28;102646.44;;;18.04;56.00
72116;BME280;59991;52.140;5.428;2022-07-06T08:25:31;102638.22;;;18.18;55.29
72116;BME280;59991;52.140;5.428;2022-07-06T08:27:32;102643.41;;;18.30;56.21
72116;BME280;59991;52.140;5.428;2022-07-06T08:29:34;102641.94;;;18.51;57.08
72116;BME280;59991;52.140;5.428;2022-07-06T08:31:36;102636.81;;;18.46;54.90
72116;BME280;59991;52.140;5.428;2022-07-06T08:34:15;102640.31;;;18.39;55.89
72116;BME280;59991;52.140;5.428;2022-07-06T08:36:16;102642.69;;;18.41;55.08
72116;BME280;59991;52.140;5.428;2022-07-06T08:38:18;102638.69;;;18.27;55.97
72116;BME280;59991;52.140;5.428;2022-07-06T08:40:19;102647.34;;;18.22;55.28
72116;BME280;59991;52.140;5.428;2022-07-06T08:42:21;102637.38;;;18.11;54.37
72116;BME280;59991;52.140;5.428;2022-07-06T08:44:23;102634.94;;;17.95;54.76
72116;BME280;59991;52.140;5.428;2022-07-06T08:46:27;102639.25;;;17.89;54.82
72116;BME280;59991;52.140;5.428;2022-07-06T08:48:49;102639.25;;;17.89;54.39
72116;BME280;59991;52.140;5.428;2022-07-06T08:50:51;102637.25;;;17.86;54.10
72116;BME280;59991;52.140;5.428;2022-07-06T08:52:54;102632.91;;;17.85;54.58
72116;BME280;59991;52.140;5.428;2022-07-06T08:54:56;102636.06;;;17.90;53.60
72116;BME280;59991;52.140;5.428;2022-07-06T08:56:58;102635.31;;;17.93;55.44
72116;BME280;59991;52.140;5.428;2022-07-06T08:59:00;102630.59;;;17.94;55.48
72116;BME280;59991;52.140;5.428;2022-07-06T09:01:04;102633.72;;;17.89;54.78
72116;BME280;59991;52.140;5.428;2022-07-06T09:03:07;102633.72;;;17.92;54.51
72116;BME280;59991;52.140;5.428;2022-07-06T09:05:09;102638.19;;;18.11;55.47
72116;BME280;59991;52.140;5.428;2022-07-06T09:07:13;102630.81;;;18.33;54.21
72116;BME280;59991;52.140;5.428;2022-07-06T09:09:36;102634.94;;;18.68;54.53
72116;BME280;59991;52.140;5.428;2022-07-06T09:11:38;102630.66;;;18.88;52.72
72116;BME280;59991;52.140;5.428;2022-07-06T09:13:40;102634.66;;;19.08;53.42
72116;BME280;59991;52.140;5.428;2022-07-06T09:15:41;102629.53;;;19.28;53.00
72116;BME280;59991;52.140;5.428;2022-07-06T09:17:43;102626.38;;;19.29;52.07
72116;BME280;59991;52.140;5.428;2022-07-06T09:19:45;102634.28;;;19.24;51.85
72116;BME280;59991;52.140;5.428;2022-07-06T09:22:05;102635.50;;;19.37;53.69
72116;BME280;59991;52.140;5.428;2022-07-06T09:24:12;102635.47;;;19.48;52.50
72116;BME280;59991;52.140;5.428;2022-07-06T09:26:13;102631.13;;;19.32;51.42
72116;BME280;59991;52.140;5.428;2022-07-06T09:28:15;102636.25;;;19.16;50.36
72116;BME280;59991;52.140;5.428;2022-07-06T09:30:16;102627.91;;;19.06;52.33
72116;BME280;59991;52.140;5.428;2022-07-06T09:32:20;102631.88;;;18.97;52.83
72116;BME280;59991;52.140;5.428;2022-07-06T09:34:22;102635.41;;;18.94;52.70
72116;BME280;59991;52.140;5.428;2022-07-06T09:36:42;102636.56;;;18.90;52.16
72116;BME280;59991;52.140;5.428;2022-07-06T09:38:44;102631.81;;;18.87;50.58
72116;BME280;59991;52.140;5.428;2022-07-06T09:40:45;102641.34;;;19.00;53.36
72116;BME280;59991;52.140;5.428;2022-07-06T09:42:47;102636.63;;;19.04;51.30
72116;BME280;59991;52.140;5.428;2022-07-06T09:44:49;102641.34;;;19.00;51.20
72116;BME280;59991;52.140;5.428;2022-07-06T09:46:53;102633.44;;;18.95;52.26
72116;BME280;59991;52.140;5.428;2022-07-06T09:48:59;102644.88;;;18.93;52.40
72116;BME280;59991;52.140;5.428;2022-07-06T09:51:02;102641.72;;;18.91;53.84
72116;BME280;59991;52.140;5.428;2022-07-06T09:53:04;102642.16;;;19.08;53.95
72116;BME280;59991;52.140;5.428;2022-07-06T09:55:14;102638.22;;;19.16;51.85
72116;BME280;59991;52.140;5.428;2022-07-06T09:57:16;102644.56;;;19.30;52.96
72116;BME280;59991;52.140;5.428;2022-07-06T09:59:20;102642.97;;;19.33;52.46
72116;BME280;59991;52.140;5.428;2022-07-06T10:01:26;102646.94;;;19.32;52.80
72116;BME280;59991;52.140;5.428;2022-07-06T10:03:28;102644.16;;;19.32;52.90
72116;BME280;59991;52.140;5.428;2022-07-06T10:05:31;102643.00;;;19.40;52.13
72116;BME280;59991;52.140;5.428;2022-07-06T10:07:33;102645.34;;;19.49;52.26
72116;BME280;59991;52.140;5.428;2022-07-06T10:09:35;102659.22;;;19.66;50.75
72116;BME280;59991;52.140;5.428;2022-07-06T10:11:48;102657.25;;;19.71;49.60
72116;BME280;59991;52.140;5.428;2022-07-06T10:13:54;102656.06;;;19.68;47.66
72116;BME280;59991;52.140;5.428;2022-07-06T10:15:57;102640.66;;;19.67;47.92
72116;BME280;59991;52.140;5.428;2022-07-06T10:18:01;102653.28;;;19.64;48.63
72116;BME280;59991;52.140;5.428;2022-07-06T10:20:03;102640.63;;;19.49;49.01
72116;BME280;59991;52.140;5.428;2022-07-06T10:22:08;102643.41;;;19.71;49.60
72116;BME280;59991;52.140;5.428;2022-07-06T10:24:12;102637.47;;;19.86;48.97
72116;BME280;59991;52.140;5.428;2022-07-06T10:26:17;102651.69;;;19.92;48.88
72116;BME280;59991;52.140;5.428;2022-07-06T10:28:19;102637.03;;;20.02;48.22
72116;BME280;59991;52.140;5.428;2022-07-06T10:30:22;102638.19;;;20.19;47.89
72116;BME280;59991;52.140;5.428;2022-07-06T10:32:46;102635.78;;;20.28;50.01
72116;BME280;59991;52.140;5.428;2022-07-06T10:34:49;102636.56;;;20.32;48.80
72116;BME280;59991;52.140;5.428;2022-07-06T10:37:23;102640.41;;;20.66;49.10
72116;BME280;59991;52.140;5.428;2022-07-06T10:39:37;102634.78;;;20.84;47.44
72116;BME280;59991;52.140;5.428;2022-07-06T10:41:57;102639.91;;;20.93;47.27
72116;BME280;59991;52.140;5.428;2022-07-06T10:44:15;102637.91;;;20.97;46.36
72116;BME280;59991;52.140;5.428;2022-07-06T10:46:17;102631.09;;;21.05;47.32
72116;BME280;59991;52.140;5.428;2022-07-06T10:48:20;102633.50;;;20.99;47.47
72116;BME280;59991;52.140;5.428;2022-07-06T10:50:22;102632.41;;;20.79;47.97
72116;BME280;59991;52.140;5.428;2022-07-06T10:52:50;102637.72;;;20.52;47.95
72116;BME280;59991;52.140;5.428;2022-07-06T10:54:55;102633.41;;;20.33;47.35
72116;BME280;59991;52.140;5.428;2022-07-06T10:57:08;102617.19;;;20.21;48.13